PDA6124 UKWW-LMML
Flight info
| Callsign | PDA6124 |
|---|---|
| Flight time | 2h 31m |
| Altitude | 38000 |
| Route | TAKET DCT AKLEF/N0434F380 DCT TIDGA DCT DIRER DCT YUYUH DCT BEVIS DCT SIRGI DCT RCA DCT OLLEK |
| Aircraft | B738/M-SDE2E3FGHIRWXY/LB1 |
Departure
| Time | 2026-05-04 16:54 |
|---|---|
| Airport | Vinnytsia/Gavyryshivka International Airport (UKWW) |
Arrival
| Time | 2026-05-04 19:25 |
|---|---|
| Airport | Malta International Airport (LMML) |
| Time | Latitude | Longitude | Altitude | Speed | Heading |
|---|---|---|---|---|---|
| 2026-05-04 16:53 | 49.26412 | 28.67417 | 8012 ft | 295 kts | 184° |
| 2026-05-04 16:54 | 49.24371 | 28.66971 | 8825 ft | 301 kts | 194° |
| 2026-05-04 16:55 | 49.18122 | 28.58224 | 11392 ft | 339 kts | 249° |
| 2026-05-04 16:55 | 49.16196 | 28.51242 | 12639 ft | 361 kts | 249° |
| 2026-05-04 16:56 | 49.14178 | 28.44075 | 14245 ft | 370 kts | 249° |
| 2026-05-04 16:56 | 49.11014 | 28.33003 | 16536 ft | 383 kts | 248° |
| 2026-05-04 16:57 | 49.09930 | 28.29228 | 17306 ft | 387 kts | 247° |
| 2026-05-04 16:57 | 49.07254 | 28.21978 | 18742 ft | 396 kts | 238° |
| 2026-05-04 16:58 | 49.02768 | 28.11065 | 20829 ft | 405 kts | 239° |
| 2026-05-04 16:58 | 49.01278 | 28.07357 | 21508 ft | 408 kts | 239° |
| 2026-05-04 16:59 | 48.98273 | 27.99836 | 22792 ft | 414 kts | 239° |
| 2026-05-04 17:00 | 48.92169 | 27.84507 | 25143 ft | 427 kts | 239° |
| 2026-05-04 17:00 | 48.87494 | 27.72795 | 26640 ft | 435 kts | 239° |
| 2026-05-04 17:01 | 48.84314 | 27.64863 | 27555 ft | 442 kts | 239° |
| 2026-05-04 17:01 | 48.81092 | 27.56843 | 28442 ft | 447 kts | 239° |
| 2026-05-04 17:02 | 48.77844 | 27.48770 | 29302 ft | 452 kts | 239° |
| 2026-05-04 17:02 | 48.74514 | 27.40519 | 30096 ft | 457 kts | 239° |
| 2026-05-04 17:03 | 48.72841 | 27.36382 | 30612 ft | 456 kts | 239° |
| 2026-05-04 17:03 | 48.71169 | 27.32252 | 31183 ft | 454 kts | 238° |
| 2026-05-04 17:03 | 48.67927 | 27.24266 | 32072 ft | 453 kts | 238° |
| 2026-05-04 17:04 | 48.64641 | 27.16202 | 32921 ft | 452 kts | 238° |
| 2026-05-04 17:04 | 48.61324 | 27.08087 | 33732 ft | 451 kts | 238° |
| 2026-05-04 17:05 | 48.58007 | 27.00002 | 34461 ft | 450 kts | 238° |
| 2026-05-04 17:05 | 48.54724 | 26.92006 | 35100 ft | 448 kts | 239° |
| 2026-05-04 17:06 | 48.51402 | 26.83947 | 35686 ft | 448 kts | 239° |
| 2026-05-04 17:06 | 48.49761 | 26.79973 | 35994 ft | 447 kts | 239° |
| 2026-05-04 17:07 | 48.46471 | 26.72019 | 36598 ft | 445 kts | 239° |
| 2026-05-04 17:07 | 48.45375 | 26.69377 | 36798 ft | 445 kts | 239° |
| 2026-05-04 17:07 | 48.43181 | 26.64091 | 37273 ft | 444 kts | 238° |
| 2026-05-04 17:07 | 48.41553 | 26.60175 | 37623 ft | 443 kts | 238° |
| 2026-05-04 17:08 | 48.39886 | 26.56178 | 37925 ft | 443 kts | 238° |
| 2026-05-04 17:08 | 48.36571 | 26.48296 | 38048 ft | 447 kts | 238° |
| 2026-05-04 17:09 | 48.33242 | 26.40433 | 38045 ft | 443 kts | 238° |
| 2026-05-04 17:09 | 48.29946 | 26.32658 | 38042 ft | 442 kts | 238° |
| 2026-05-04 17:10 | 48.21712 | 26.13187 | 38052 ft | 442 kts | 238° |
| 2026-05-04 17:11 | 48.18432 | 26.05440 | 38051 ft | 442 kts | 238° |
| 2026-05-04 17:12 | 48.13459 | 25.93792 | 38052 ft | 442 kts | 238° |
| 2026-05-04 17:13 | 48.05142 | 25.74411 | 38073 ft | 442 kts | 238° |
| 2026-05-04 17:14 | 47.98508 | 25.58997 | 38089 ft | 441 kts | 238° |
| 2026-05-04 17:15 | 47.93602 | 25.47432 | 38104 ft | 441 kts | 238° |
| 2026-05-04 17:16 | 47.85678 | 25.33673 | 38124 ft | 443 kts | 227° |
| 2026-05-04 17:17 | 47.77305 | 25.20307 | 38121 ft | 443 kts | 227° |
| 2026-05-04 17:18 | 47.68987 | 25.06974 | 38133 ft | 443 kts | 227° |
| 2026-05-04 17:19 | 47.60597 | 24.93627 | 38136 ft | 443 kts | 227° |
| 2026-05-04 17:20 | 47.52191 | 24.80273 | 38128 ft | 443 kts | 227° |
| 2026-05-04 17:20 | 47.45554 | 24.70622 | 38124 ft | 444 kts | 223° |
| 2026-05-04 17:21 | 47.36634 | 24.58306 | 38119 ft | 444 kts | 224° |
| 2026-05-04 17:22 | 47.32201 | 24.52093 | 38121 ft | 444 kts | 224° |
| 2026-05-04 17:23 | 47.23599 | 24.39909 | 38113 ft | 444 kts | 225° |
| 2026-05-04 17:24 | 47.17016 | 24.30632 | 38104 ft | 444 kts | 224° |
| 2026-05-04 17:25 | 47.08130 | 24.18227 | 38097 ft | 444 kts | 224° |
| 2026-05-04 17:26 | 46.99265 | 24.05932 | 38090 ft | 445 kts | 224° |
| 2026-05-04 17:27 | 46.88291 | 23.90721 | 38082 ft | 443 kts | 224° |
| 2026-05-04 17:28 | 46.79406 | 23.78469 | 38086 ft | 444 kts | 224° |
| 2026-05-04 17:29 | 46.65959 | 23.60062 | 38092 ft | 444 kts | 224° |
| 2026-05-04 17:31 | 46.54738 | 23.44778 | 38113 ft | 444 kts | 224° |
| 2026-05-04 17:32 | 46.43479 | 23.29578 | 38143 ft | 444 kts | 224° |
| 2026-05-04 17:33 | 46.34483 | 23.17478 | 38146 ft | 445 kts | 224° |
| 2026-05-04 17:34 | 46.25550 | 23.05440 | 38130 ft | 446 kts | 224° |
| 2026-05-04 17:35 | 46.14336 | 22.90527 | 38110 ft | 445 kts | 224° |
| 2026-05-04 17:36 | 46.09859 | 22.84562 | 38103 ft | 445 kts | 224° |
| 2026-05-04 17:36 | 46.05365 | 22.78598 | 38099 ft | 446 kts | 224° |
| 2026-05-04 17:37 | 46.00829 | 22.72595 | 38093 ft | 446 kts | 224° |
| 2026-05-04 17:37 | 45.96338 | 22.66663 | 38092 ft | 446 kts | 224° |
| 2026-05-04 17:38 | 45.91783 | 22.60671 | 38098 ft | 445 kts | 224° |
| 2026-05-04 17:38 | 45.87216 | 22.54701 | 38111 ft | 445 kts | 224° |
| 2026-05-04 17:39 | 45.80547 | 22.46004 | 38120 ft | 445 kts | 224° |
| 2026-05-04 17:39 | 45.75969 | 22.40042 | 38113 ft | 446 kts | 224° |
| 2026-05-04 17:40 | 45.71406 | 22.34096 | 38104 ft | 446 kts | 223° |
| 2026-05-04 17:40 | 45.66874 | 22.28210 | 38091 ft | 447 kts | 223° |
| 2026-05-04 17:41 | 45.62338 | 22.22313 | 38085 ft | 446 kts | 223° |
| 2026-05-04 17:41 | 45.58682 | 22.17566 | 38082 ft | 445 kts | 223° |
| 2026-05-04 17:42 | 45.54214 | 22.11798 | 38084 ft | 445 kts | 223° |
| 2026-05-04 17:42 | 45.49715 | 22.05997 | 38084 ft | 447 kts | 224° |
| 2026-05-04 17:43 | 45.45306 | 22.00327 | 38086 ft | 446 kts | 223° |
| 2026-05-04 17:43 | 45.40830 | 21.94567 | 38092 ft | 447 kts | 223° |
| 2026-05-04 17:44 | 45.36337 | 21.88804 | 38092 ft | 447 kts | 223° |
| 2026-05-04 17:44 | 45.31729 | 21.82915 | 38094 ft | 445 kts | 223° |
| 2026-05-04 17:45 | 45.27177 | 21.77145 | 38087 ft | 445 kts | 223° |
| 2026-05-04 17:45 | 45.22540 | 21.71276 | 38083 ft | 445 kts | 223° |
| 2026-05-04 17:46 | 45.17994 | 21.65538 | 38093 ft | 445 kts | 224° |
| 2026-05-04 17:46 | 45.13424 | 21.59761 | 38086 ft | 445 kts | 224° |
| 2026-05-04 17:47 | 45.08802 | 21.53959 | 38085 ft | 446 kts | 223° |
| 2026-05-04 17:47 | 45.04178 | 21.48148 | 38086 ft | 445 kts | 224° |
| 2026-05-04 17:48 | 44.99584 | 21.42358 | 38080 ft | 445 kts | 224° |
| 2026-05-04 17:48 | 44.94797 | 21.36831 | 38079 ft | 445 kts | 219° |
| 2026-05-04 17:49 | 44.89805 | 21.31667 | 38083 ft | 446 kts | 217° |
| 2026-05-04 17:49 | 44.84779 | 21.26516 | 38083 ft | 446 kts | 217° |
| 2026-05-04 17:50 | 44.79820 | 21.21433 | 38081 ft | 446 kts | 218° |
| 2026-05-04 17:50 | 44.74840 | 21.16260 | 38081 ft | 446 kts | 218° |
| 2026-05-04 17:51 | 44.69853 | 21.11089 | 38081 ft | 447 kts | 218° |
| 2026-05-04 17:51 | 44.64870 | 21.05918 | 38083 ft | 446 kts | 218° |
| 2026-05-04 17:52 | 44.59928 | 21.00818 | 38078 ft | 446 kts | 218° |
| 2026-05-04 17:52 | 44.54951 | 20.95665 | 38085 ft | 446 kts | 218° |
| 2026-05-04 17:53 | 44.50073 | 20.90657 | 38092 ft | 446 kts | 218° |
| 2026-05-04 17:53 | 44.45127 | 20.85576 | 38096 ft | 446 kts | 218° |
| 2026-05-04 17:54 | 44.40200 | 20.80498 | 38092 ft | 446 kts | 218° |
| 2026-05-04 17:54 | 44.35245 | 20.75380 | 38095 ft | 446 kts | 218° |
| 2026-05-04 17:55 | 44.30256 | 20.70252 | 38092 ft | 447 kts | 218° |
| 2026-05-04 17:55 | 44.25313 | 20.65226 | 38099 ft | 446 kts | 218° |
| 2026-05-04 17:56 | 44.20376 | 20.60202 | 38103 ft | 446 kts | 218° |
| 2026-05-04 17:56 | 44.15410 | 20.55169 | 38102 ft | 445 kts | 218° |
| 2026-05-04 17:57 | 44.10429 | 20.50144 | 38106 ft | 446 kts | 218° |
| 2026-05-04 17:57 | 44.05464 | 20.45125 | 38102 ft | 445 kts | 218° |
| 2026-05-04 17:58 | 44.00476 | 20.40081 | 38106 ft | 445 kts | 218° |
| 2026-05-04 17:58 | 43.95503 | 20.35072 | 38109 ft | 445 kts | 218° |
| 2026-05-04 17:59 | 43.90545 | 20.30113 | 38108 ft | 444 kts | 217° |
| 2026-05-04 18:00 | 43.83012 | 20.22581 | 38111 ft | 445 kts | 218° |
| 2026-05-04 18:00 | 43.78031 | 20.17597 | 38113 ft | 445 kts | 218° |
| 2026-05-04 18:01 | 43.72979 | 20.12567 | 38117 ft | 446 kts | 218° |
| 2026-05-04 18:01 | 43.68062 | 20.07671 | 38124 ft | 446 kts | 217° |
| 2026-05-04 18:02 | 43.60548 | 20.00250 | 38140 ft | 444 kts | 218° |
| 2026-05-04 18:02 | 43.55645 | 19.95375 | 38148 ft | 444 kts | 218° |
| 2026-05-04 18:03 | 43.50719 | 19.90491 | 38160 ft | 443 kts | 218° |
| 2026-05-04 18:03 | 43.45842 | 19.85665 | 38155 ft | 442 kts | 218° |
| 2026-05-04 18:04 | 43.40947 | 19.80848 | 38162 ft | 443 kts | 218° |
| 2026-05-04 18:05 | 43.33585 | 19.73618 | 38156 ft | 442 kts | 218° |
| 2026-05-04 18:05 | 43.28709 | 19.68826 | 38157 ft | 442 kts | 218° |
| 2026-05-04 18:06 | 43.21336 | 19.61448 | 38162 ft | 440 kts | 221° |
| 2026-05-04 18:06 | 43.16707 | 19.56135 | 38167 ft | 439 kts | 223° |
| 2026-05-04 18:07 | 43.12093 | 19.50841 | 38161 ft | 440 kts | 223° |
| 2026-05-04 18:07 | 43.07433 | 19.45565 | 38157 ft | 440 kts | 223° |
| 2026-05-04 18:08 | 43.02747 | 19.40255 | 38157 ft | 440 kts | 223° |
| 2026-05-04 18:08 | 42.98111 | 19.35032 | 38169 ft | 441 kts | 223° |
| 2026-05-04 18:09 | 42.88710 | 19.24476 | 38181 ft | 439 kts | 222° |
| 2026-05-04 18:10 | 42.84021 | 19.19206 | 38182 ft | 440 kts | 222° |
| 2026-05-04 18:10 | 42.79290 | 19.13934 | 38169 ft | 441 kts | 222° |
| 2026-05-04 18:11 | 42.74562 | 19.08695 | 38156 ft | 441 kts | 222° |
| 2026-05-04 18:11 | 42.69859 | 19.03482 | 38153 ft | 440 kts | 222° |
| 2026-05-04 18:12 | 42.65165 | 18.98280 | 38156 ft | 441 kts | 223° |
| 2026-05-04 18:12 | 42.60499 | 18.93100 | 38154 ft | 439 kts | 223° |
| 2026-05-04 18:13 | 42.55860 | 18.87940 | 38154 ft | 439 kts | 223° |
| 2026-05-04 18:14 | 42.48856 | 18.80220 | 38137 ft | 439 kts | 223° |
| 2026-05-04 18:14 | 42.44179 | 18.75102 | 38135 ft | 439 kts | 223° |
| 2026-05-04 18:15 | 42.34732 | 18.64717 | 38127 ft | 438 kts | 223° |
| 2026-05-04 18:16 | 42.29971 | 18.59504 | 38125 ft | 436 kts | 223° |
| 2026-05-04 18:16 | 42.25254 | 18.54360 | 38130 ft | 437 kts | 223° |
| 2026-05-04 18:17 | 42.18172 | 18.46714 | 38125 ft | 436 kts | 223° |
| 2026-05-04 18:18 | 42.11141 | 18.39121 | 38113 ft | 434 kts | 224° |
| 2026-05-04 18:18 | 42.06508 | 18.34117 | 38110 ft | 434 kts | 223° |
| 2026-05-04 18:19 | 41.99441 | 18.26460 | 38116 ft | 434 kts | 223° |
| 2026-05-04 18:19 | 41.94665 | 18.21272 | 38112 ft | 432 kts | 224° |
| 2026-05-04 18:20 | 41.89740 | 18.16458 | 38111 ft | 438 kts | 217° |
| 2026-05-04 18:20 | 41.84565 | 18.12189 | 38111 ft | 438 kts | 216° |
| 2026-05-04 18:21 | 41.79415 | 18.07914 | 38112 ft | 438 kts | 217° |
| 2026-05-04 18:21 | 41.74255 | 18.03566 | 38111 ft | 439 kts | 217° |
| 2026-05-04 18:22 | 41.69073 | 17.99199 | 38113 ft | 437 kts | 217° |
| 2026-05-04 18:22 | 41.63862 | 17.94767 | 38114 ft | 438 kts | 217° |
| 2026-05-04 18:23 | 41.58646 | 17.90415 | 38110 ft | 437 kts | 217° |
| 2026-05-04 18:23 | 41.53541 | 17.86095 | 38110 ft | 437 kts | 218° |
| 2026-05-04 18:24 | 41.48328 | 17.81718 | 38110 ft | 438 kts | 217° |
| 2026-05-04 18:24 | 41.43207 | 17.77435 | 38111 ft | 438 kts | 217° |
| 2026-05-04 18:25 | 41.38104 | 17.73187 | 38112 ft | 439 kts | 218° |
| 2026-05-04 18:25 | 41.33052 | 17.68948 | 38111 ft | 438 kts | 218° |
| 2026-05-04 18:26 | 41.27978 | 17.64671 | 38111 ft | 439 kts | 218° |
| 2026-05-04 18:26 | 41.22886 | 17.60410 | 38110 ft | 436 kts | 218° |
| 2026-05-04 18:27 | 41.17841 | 17.56224 | 38110 ft | 439 kts | 218° |
| 2026-05-04 18:27 | 41.12741 | 17.51962 | 38109 ft | 439 kts | 218° |
| 2026-05-04 18:28 | 41.07634 | 17.47741 | 38112 ft | 439 kts | 218° |
| 2026-05-04 18:28 | 41.02510 | 17.43500 | 38112 ft | 439 kts | 218° |
| 2026-05-04 18:29 | 40.97335 | 17.39253 | 38112 ft | 440 kts | 218° |
| 2026-05-04 18:29 | 40.92264 | 17.35061 | 38109 ft | 440 kts | 219° |
| 2026-05-04 18:30 | 40.84432 | 17.28644 | 38116 ft | 441 kts | 218° |
| 2026-05-04 18:31 | 40.79255 | 17.24425 | 38125 ft | 441 kts | 218° |
| 2026-05-04 18:31 | 40.74036 | 17.20169 | 38132 ft | 440 kts | 218° |
| 2026-05-04 18:32 | 40.68832 | 17.15903 | 38130 ft | 440 kts | 218° |
| 2026-05-04 18:32 | 40.63644 | 17.11651 | 38123 ft | 442 kts | 219° |
| 2026-05-04 18:33 | 40.58419 | 17.07348 | 38119 ft | 440 kts | 218° |
| 2026-05-04 18:33 | 40.53242 | 17.03144 | 38113 ft | 443 kts | 218° |
| 2026-05-04 18:34 | 40.48010 | 16.98888 | 38112 ft | 441 kts | 218° |
| 2026-05-04 18:34 | 40.42717 | 16.94637 | 38110 ft | 443 kts | 218° |
| 2026-05-04 18:35 | 40.37452 | 16.90437 | 38111 ft | 442 kts | 218° |
| 2026-05-04 18:35 | 40.32337 | 16.86303 | 38117 ft | 442 kts | 219° |
| 2026-05-04 18:36 | 40.27539 | 16.82401 | 38115 ft | 440 kts | 219° |
| 2026-05-04 18:36 | 40.22414 | 16.78242 | 38111 ft | 441 kts | 219° |
| 2026-05-04 18:37 | 40.17186 | 16.74041 | 38318 ft | 440 kts | 219° |
| 2026-05-04 18:37 | 40.14639 | 16.71899 | 38142 ft | 442 kts | 219° |
| 2026-05-04 18:37 | 40.11897 | 16.69929 | 38112 ft | 444 kts | 212° |
| 2026-05-04 18:38 | 40.06165 | 16.66860 | 38120 ft | 450 kts | 207° |
| 2026-05-04 18:38 | 40.00383 | 16.63910 | 38120 ft | 450 kts | 208° |
| 2026-05-04 18:39 | 39.94712 | 16.60934 | 38119 ft | 450 kts | 209° |
| 2026-05-04 18:39 | 39.89010 | 16.57927 | 38119 ft | 449 kts | 209° |
| 2026-05-04 18:40 | 39.83271 | 16.54928 | 38120 ft | 448 kts | 208° |
| 2026-05-04 18:40 | 39.77576 | 16.51928 | 38121 ft | 449 kts | 209° |
| 2026-05-04 18:41 | 39.71759 | 16.48886 | 38122 ft | 448 kts | 208° |
| 2026-05-04 18:41 | 39.66106 | 16.45934 | 38127 ft | 449 kts | 208° |
| 2026-05-04 18:42 | 39.60415 | 16.42938 | 38136 ft | 447 kts | 209° |
| 2026-05-04 18:42 | 39.54676 | 16.39936 | 38144 ft | 446 kts | 209° |
| 2026-05-04 18:43 | 39.48875 | 16.36933 | 38146 ft | 447 kts | 208° |
| 2026-05-04 18:43 | 39.43218 | 16.33999 | 38150 ft | 446 kts | 208° |
| 2026-05-04 18:44 | 39.37465 | 16.31005 | 38148 ft | 447 kts | 208° |
| 2026-05-04 18:44 | 39.31720 | 16.28046 | 38147 ft | 447 kts | 208° |
| 2026-05-04 18:45 | 39.25970 | 16.25086 | 38142 ft | 444 kts | 208° |
| 2026-05-04 18:45 | 39.20343 | 16.22133 | 38140 ft | 444 kts | 208° |
| 2026-05-04 18:46 | 39.14638 | 16.19145 | 38128 ft | 444 kts | 208° |
| 2026-05-04 18:46 | 39.08944 | 16.16215 | 37903 ft | 444 kts | 208° |
| 2026-05-04 18:46 | 39.06150 | 16.14779 | 38094 ft | 439 kts | 208° |
| 2026-05-04 18:47 | 39.03331 | 16.13341 | 38123 ft | 443 kts | 207° |
| 2026-05-04 18:47 | 38.97579 | 16.10411 | 38121 ft | 446 kts | 208° |
| 2026-05-04 18:48 | 38.92758 | 16.07959 | 38117 ft | 443 kts | 207° |
| 2026-05-04 18:48 | 38.89776 | 16.06443 | 38262 ft | 443 kts | 208° |
| 2026-05-04 18:48 | 38.86889 | 16.04964 | 38133 ft | 442 kts | 208° |
| 2026-05-04 18:49 | 38.84043 | 16.03497 | 38184 ft | 437 kts | 208° |
| 2026-05-04 18:49 | 38.78338 | 16.00573 | 38123 ft | 441 kts | 208° |
| 2026-05-04 18:50 | 38.72876 | 15.97786 | 38117 ft | 440 kts | 208° |
| 2026-05-04 18:50 | 38.67271 | 15.94924 | 38119 ft | 440 kts | 208° |
| 2026-05-04 18:51 | 38.61565 | 15.92006 | 38119 ft | 439 kts | 208° |
| 2026-05-04 18:51 | 38.55924 | 15.89136 | 38123 ft | 439 kts | 208° |
| 2026-05-04 18:52 | 38.50242 | 15.86262 | 38127 ft | 440 kts | 208° |
| 2026-05-04 18:52 | 38.44592 | 15.83416 | 38129 ft | 438 kts | 208° |
| 2026-05-04 18:53 | 38.38947 | 15.80544 | 38143 ft | 437 kts | 208° |
| 2026-05-04 18:53 | 38.33279 | 15.77701 | 38158 ft | 438 kts | 208° |
| 2026-05-04 18:54 | 38.27629 | 15.74858 | 38164 ft | 438 kts | 208° |
| 2026-05-04 18:54 | 38.21984 | 15.72008 | 38165 ft | 436 kts | 208° |
| 2026-05-04 18:55 | 38.16394 | 15.69190 | 38159 ft | 437 kts | 208° |
| 2026-05-04 18:55 | 38.07926 | 15.64958 | 38153 ft | 434 kts | 210° |
| 2026-05-04 18:56 | 38.02600 | 15.61550 | 38155 ft | 427 kts | 217° |
| 2026-05-04 18:56 | 37.97371 | 15.57892 | 38156 ft | 429 kts | 216° |
| 2026-05-04 18:57 | 37.92193 | 15.54306 | 38153 ft | 429 kts | 216° |
| 2026-05-04 18:57 | 37.86988 | 15.50747 | 38154 ft | 429 kts | 215° |
| 2026-05-04 18:58 | 37.81772 | 15.47172 | 38150 ft | 427 kts | 215° |
| 2026-05-04 18:58 | 37.76597 | 15.43648 | 37848 ft | 415 kts | 215° |
| 2026-05-04 18:59 | 37.74131 | 15.41973 | 37472 ft | 411 kts | 216° |
| 2026-05-04 18:59 | 37.71681 | 15.40297 | 36974 ft | 412 kts | 215° |
| 2026-05-04 18:59 | 37.69146 | 15.38578 | 36371 ft | 412 kts | 216° |
| 2026-05-04 18:59 | 37.66652 | 15.36873 | 35793 ft | 411 kts | 216° |
| 2026-05-04 19:00 | 37.64186 | 15.35180 | 35372 ft | 414 kts | 216° |
| 2026-05-04 19:00 | 37.61689 | 15.33466 | 34897 ft | 422 kts | 214° |
| 2026-05-04 19:00 | 37.59261 | 15.31820 | 34425 ft | 424 kts | 214° |
| 2026-05-04 19:00 | 37.56043 | 15.29664 | 33808 ft | 416 kts | 214° |
| 2026-05-04 19:01 | 37.53527 | 15.27967 | 33325 ft | 410 kts | 214° |
| 2026-05-04 19:01 | 37.51018 | 15.26261 | 32834 ft | 405 kts | 214° |
| 2026-05-04 19:01 | 37.48619 | 15.24634 | 32367 ft | 400 kts | 214° |
| 2026-05-04 19:01 | 37.46214 | 15.23012 | 31904 ft | 396 kts | 214° |
| 2026-05-04 19:02 | 37.43986 | 15.21503 | 31466 ft | 397 kts | 214° |
| 2026-05-04 19:02 | 37.42727 | 15.20643 | 31219 ft | 398 kts | 214° |
| 2026-05-04 19:02 | 37.39038 | 15.18115 | 30483 ft | 399 kts | 214° |
| 2026-05-04 19:02 | 37.36731 | 15.16560 | 30030 ft | 394 kts | 213° |
| 2026-05-04 19:03 | 37.35108 | 15.15465 | 29710 ft | 390 kts | 213° |
| 2026-05-04 19:03 | 37.31982 | 15.13349 | 29093 ft | 383 kts | 213° |
| 2026-05-04 19:03 | 37.29659 | 15.11780 | 28633 ft | 378 kts | 213° |
| 2026-05-04 19:03 | 37.27357 | 15.10243 | 28179 ft | 373 kts | 213° |
| 2026-05-04 19:04 | 37.25110 | 15.08752 | 27734 ft | 370 kts | 213° |
| 2026-05-04 19:04 | 37.22853 | 15.07243 | 27282 ft | 372 kts | 213° |
| 2026-05-04 19:04 | 37.20568 | 15.05691 | 26824 ft | 374 kts | 213° |
| 2026-05-04 19:04 | 37.18295 | 15.04148 | 26365 ft | 370 kts | 213° |
| 2026-05-04 19:05 | 37.16052 | 15.02636 | 25916 ft | 365 kts | 213° |
| 2026-05-04 19:05 | 37.13823 | 15.01136 | 25470 ft | 360 kts | 213° |
| 2026-05-04 19:05 | 37.11626 | 14.99662 | 25034 ft | 355 kts | 213° |
| 2026-05-04 19:05 | 37.09488 | 14.98233 | 24605 ft | 351 kts | 213° |
| 2026-05-04 19:06 | 37.07286 | 14.96768 | 24167 ft | 354 kts | 213° |
| 2026-05-04 19:06 | 37.05117 | 14.95332 | 23730 ft | 358 kts | 213° |
| 2026-05-04 19:06 | 37.02897 | 14.93864 | 23284 ft | 355 kts | 213° |
| 2026-05-04 19:06 | 37.00739 | 14.92428 | 22852 ft | 350 kts | 213° |
| 2026-05-04 19:07 | 36.98601 | 14.90991 | 22423 ft | 346 kts | 213° |
| 2026-05-04 19:07 | 36.97181 | 14.90042 | 22136 ft | 343 kts | 213° |
| 2026-05-04 19:07 | 36.94405 | 14.88195 | 21573 ft | 338 kts | 212° |
| 2026-05-04 19:07 | 36.92326 | 14.86814 | 21151 ft | 334 kts | 212° |
| 2026-05-04 19:08 | 36.90541 | 14.85626 | 20787 ft | 332 kts | 213° |
| 2026-05-04 19:08 | 36.88544 | 14.84284 | 20380 ft | 334 kts | 212° |
| 2026-05-04 19:08 | 36.86473 | 14.82899 | 19957 ft | 337 kts | 212° |
| 2026-05-04 19:08 | 36.84395 | 14.81522 | 19531 ft | 334 kts | 212° |
| 2026-05-04 19:09 | 36.82352 | 14.80172 | 19114 ft | 330 kts | 212° |
| 2026-05-04 19:09 | 36.80356 | 14.78844 | 18704 ft | 325 kts | 212° |
| 2026-05-04 19:09 | 36.78371 | 14.77506 | 18297 ft | 321 kts | 212° |
| 2026-05-04 19:09 | 36.76415 | 14.76201 | 17898 ft | 318 kts | 212° |
| 2026-05-04 19:10 | 36.74440 | 14.74889 | 17495 ft | 321 kts | 212° |
| 2026-05-04 19:10 | 36.72464 | 14.73578 | 17090 ft | 323 kts | 212° |
| 2026-05-04 19:10 | 36.70484 | 14.72270 | 16683 ft | 320 kts | 211° |
| 2026-05-04 19:10 | 36.68543 | 14.70988 | 16284 ft | 316 kts | 211° |
| 2026-05-04 19:11 | 36.66595 | 14.69696 | 15884 ft | 311 kts | 211° |
| 2026-05-04 19:11 | 36.64670 | 14.68423 | 15487 ft | 309 kts | 211° |
| 2026-05-04 19:11 | 36.62742 | 14.67154 | 15091 ft | 312 kts | 211° |
| 2026-05-04 19:11 | 36.60820 | 14.65898 | 14696 ft | 314 kts | 211° |
| 2026-05-04 19:12 | 36.58879 | 14.64625 | 14297 ft | 309 kts | 211° |
| 2026-05-04 19:12 | 36.55125 | 14.62143 | 13522 ft | 301 kts | 210° |
| 2026-05-04 19:12 | 36.53272 | 14.60920 | 13138 ft | 299 kts | 211° |
| 2026-05-04 19:13 | 36.51406 | 14.59691 | 12752 ft | 303 kts | 210° |
| 2026-05-04 19:13 | 36.49516 | 14.58455 | 12344 ft | 304 kts | 210° |
| 2026-05-04 19:13 | 36.47658 | 14.57275 | 11951 ft | 300 kts | 209° |
| 2026-05-04 19:13 | 36.45802 | 14.56111 | 11570 ft | 295 kts | 208° |
| 2026-05-04 19:14 | 36.43957 | 14.54951 | 11193 ft | 291 kts | 209° |
| 2026-05-04 19:14 | 36.42139 | 14.53806 | 10823 ft | 292 kts | 209° |
| 2026-05-04 19:14 | 36.40915 | 14.53035 | 10573 ft | 294 kts | 208° |
| 2026-05-04 19:14 | 36.38479 | 14.51500 | 10080 ft | 292 kts | 208° |
| 2026-05-04 19:15 | 36.36661 | 14.50356 | 9800 ft | 284 kts | 208° |
| 2026-05-04 19:15 | 36.34897 | 14.49245 | 9444 ft | 281 kts | 208° |
| 2026-05-04 19:15 | 36.33187 | 14.48170 | 9101 ft | 277 kts | 208° |
| 2026-05-04 19:15 | 36.31469 | 14.47092 | 8756 ft | 278 kts | 208° |
| 2026-05-04 19:16 | 36.29745 | 14.46009 | 8406 ft | 280 kts | 208° |
| 2026-05-04 19:16 | 36.28003 | 14.44914 | 8052 ft | 279 kts | 208° |
| 2026-05-04 19:16 | 36.26276 | 14.43829 | 7701 ft | 275 kts | 207° |
| 2026-05-04 19:16 | 36.24575 | 14.42763 | 7465 ft | 266 kts | 207° |
| 2026-05-04 19:17 | 36.22950 | 14.41742 | 7384 ft | 265 kts | 207° |
| 2026-05-04 19:17 | 36.21252 | 14.40676 | 7253 ft | 273 kts | 207° |
| 2026-05-04 19:17 | 36.19544 | 14.39610 | 7141 ft | 275 kts | 207° |
| 2026-05-04 19:17 | 36.17827 | 14.38539 | 6968 ft | 275 kts | 207° |
| 2026-05-04 19:18 | 36.16124 | 14.37474 | 6795 ft | 274 kts | 207° |
| 2026-05-04 19:18 | 36.14416 | 14.36405 | 6622 ft | 273 kts | 207° |
| 2026-05-04 19:18 | 36.12704 | 14.35337 | 6447 ft | 273 kts | 207° |
| 2026-05-04 19:18 | 36.11012 | 14.34280 | 6275 ft | 271 kts | 206° |
| 2026-05-04 19:19 | 36.09320 | 14.33224 | 6101 ft | 271 kts | 206° |
| 2026-05-04 19:19 | 36.07622 | 14.32165 | 5926 ft | 270 kts | 206° |
| 2026-05-04 19:19 | 36.05920 | 14.31104 | 5749 ft | 269 kts | 206° |
| 2026-05-04 19:19 | 36.04219 | 14.30057 | 5514 ft | 266 kts | 204° |
| 2026-05-04 19:20 | 36.03104 | 14.29490 | 5191 ft | 267 kts | 197° |
| 2026-05-04 19:20 | 36.00711 | 14.29531 | 4510 ft | 265 kts | 153° |
| 2026-05-04 19:20 | 35.99278 | 14.30930 | 4137 ft | 260 kts | 131° |
| 2026-05-04 19:20 | 35.98031 | 14.32550 | 3744 ft | 256 kts | 131° |
| 2026-05-04 19:21 | 35.96805 | 14.34121 | 3379 ft | 250 kts | 133° |
| 2026-05-04 19:21 | 35.95583 | 14.35630 | 3036 ft | 244 kts | 133° |
| 2026-05-04 19:21 | 35.94381 | 14.37117 | 2702 ft | 238 kts | 133° |
| 2026-05-04 19:21 | 35.93253 | 14.38513 | 2381 ft | 218 kts | 134° |
| 2026-05-04 19:22 | 35.92235 | 14.39772 | 2091 ft | 198 kts | 134° |
| 2026-05-04 19:22 | 35.91289 | 14.40940 | 1843 ft | 179 kts | 134° |
| 2026-05-04 19:22 | 35.90444 | 14.41987 | 1592 ft | 163 kts | 134° |
| 2026-05-04 19:22 | 35.89930 | 14.42641 | 1443 ft | 153 kts | 133° |
| 2026-05-04 19:23 | 35.88994 | 14.43823 | 1215 ft | 139 kts | 136° |
| 2026-05-04 19:23 | 35.88290 | 14.44643 | 1061 ft | 137 kts | 133° |
| 2026-05-04 19:23 | 35.87621 | 14.45491 | 893 ft | 135 kts | 135° |
| 2026-05-04 19:23 | 35.86926 | 14.46296 | 644 ft | 138 kts | 134° |
| 2026-05-04 19:24 | 35.86262 | 14.47125 | 479 ft | 132 kts | 134° |
| 2026-05-04 19:24 | 35.85605 | 14.47941 | 321 ft | 133 kts | 134° |
| 2026-05-04 19:24 | 35.84977 | 14.48734 | 256 ft | 126 kts | 131° |
| 2026-05-04 19:24 | 35.84430 | 14.49406 | 248 ft | 93 kts | 135° |
| 2026-05-04 19:25 | 35.84046 | 14.49876 | 245 ft | 60 kts | 134° |
| 2026-05-04 19:25 | 35.83824 | 14.50144 | 241 ft | 36 kts | 135° |
| 2026-05-04 19:25 | 35.83633 | 14.50372 | 237 ft | 48 kts | 140° |
| 2026-05-04 19:25 | 35.83533 | 14.50660 | 235 ft | 16 kts | 111° |
| 2026-05-04 19:26 | 35.83460 | 14.50711 | 235 ft | 14 kts | 239° |
| 2026-05-04 19:26 | 35.83466 | 14.50596 | 235 ft | 13 kts | 295° |
| 2026-05-04 19:26 | 35.83543 | 14.50483 | 236 ft | 21 kts | 314° |
| 2026-05-04 19:26 | 35.83639 | 14.50360 | 237 ft | 19 kts | 314° |
| 2026-05-04 19:27 | 35.83750 | 14.50220 | 239 ft | 25 kts | 313° |
| 2026-05-04 19:27 | 35.83884 | 14.50050 | 242 ft | 29 kts | 314° |
| 2026-05-04 19:27 | 35.84019 | 14.49883 | 245 ft | 25 kts | 316° |
| 2026-05-04 19:27 | 35.84156 | 14.49748 | 246 ft | 24 kts | 334° |
| 2026-05-04 19:28 | 35.84314 | 14.49675 | 246 ft | 23 kts | 344° |
| 2026-05-04 19:28 | 35.84467 | 14.49613 | 246 ft | 22 kts | 329° |
| 2026-05-04 19:28 | 35.84598 | 14.49547 | 246 ft | 20 kts | 34° |
| 2026-05-04 19:28 | 35.84698 | 14.49553 | 246 ft | 14 kts | 328° |
| 2026-05-04 19:29 | 35.84784 | 14.49517 | 246 ft | 11 kts | 357° |
| 2026-05-04 19:29 | 35.84809 | 14.49517 | 246 ft | 0 kts | 358° |